Time;durP1;ratioP1;P1;durP2;ratioP2;P2;SDS_P1;SDS_P2;PMS_P1;PMS_P2;Temp;Humidity;BMP_temperature;BMP_pressure;BME280_temperature;BME280_humidity;BME280_pressure;Samples;Min_cycle;Max_cycle;Signal;HPM_P1;HPM_P2
2022/12/19 00:00:21;;;;;;;7.25;5.38;;;-0.40;76.20;;;;;;5096127;28;20028;-58
2022/12/19 00:02:47;;;;;;;6.82;5.68;;;-0.40;76.20;;;;;;5095947;28;20035;-58
2022/12/19 00:05:13;;;;;;;6.85;5.25;;;-0.30;76.50;;;;;;5096016;28;20455;-58
2022/12/19 00:07:38;;;;;;;6.03;5.07;;;-0.30;76.40;;;;;;5095891;28;20016;-58
2022/12/19 00:10:05;;;;;;;6.18;4.85;;;-0.40;76.10;;;;;;5095804;28;20020;-58
2022/12/19 00:12:31;;;;;;;5.88;5.22;;;-0.40;75.90;;;;;;5095872;28;20020;-58
2022/12/19 00:14:56;;;;;;;7.75;5.85;;;-0.40;76.00;;;;;;5096359;28;20028;-58
2022/12/19 00:17:22;;;;;;;7.80;5.95;;;-0.40;76.20;;;;;;5095459;28;20056;-58
2022/12/19 00:19:48;;;;;;;7.85;5.53;;;-0.40;76.00;;;;;;5095653;28;20059;-58
2022/12/19 00:22:13;;;;;;;6.75;5.60;;;-0.50;76.10;;;;;;5095685;28;20387;-58
2022/12/19 00:24:39;;;;;;;7.25;5.53;;;-0.50;75.90;;;;;;5095539;28;20024;-58
2022/12/19 00:27:04;;;;;;;9.38;6.07;;;-0.50;75.70;;;;;;5095172;28;20471;-59
2022/12/19 00:29:30;;;;;;;8.80;6.43;;;-0.50;75.90;;;;;;5095482;28;20024;-58
2022/12/19 00:31:57;;;;;;;7.22;5.70;;;-0.50;75.90;;;;;;5095404;28;20039;-58
2022/12/19 00:34:23;;;;;;;8.23;6.55;;;-0.50;75.80;;;;;;5095439;28;20031;-58
2022/12/19 00:36:48;;;;;;;7.97;5.80;;;-0.50;75.90;;;;;;5095342;28;20028;-59
2022/12/19 00:39:14;;;;;;;7.20;6.03;;;-0.50;75.80;;;;;;5095285;28;20028;-58
2022/12/19 00:41:40;;;;;;;8.30;6.13;;;-0.50;76.10;;;;;;5095275;28;20382;-58
2022/12/19 00:44:11;;;;;;;8.02;6.18;;;-0.50;76.30;;;;;;5108339;28;20405;-58
2022/12/19 00:46:37;;;;;;;8.10;6.47;;;-0.40;76.40;;;;;;5115597;28;20023;-58
2022/12/19 00:49:04;;;;;;;8.02;6.78;;;-0.40;76.70;;;;;;5116346;28;20351;-58
2022/12/19 00:51:32;;;;;;;7.60;6.40;;;-0.40;76.60;;;;;;5115014;28;20039;-58
2022/12/19 00:53:58;;;;;;;9.35;7.07;;;-0.40;76.40;;;;;;5115694;28;20034;-58
2022/12/19 00:56:30;;;;;;;7.03;6.10;;;-0.30;76.20;;;;;;5115298;28;20020;-58
2022/12/19 00:58:56;;;;;;;8.15;6.43;;;-0.30;75.60;;;;;;5115388;28;20031;-58
2022/12/19 01:01:25;;;;;;;7.40;6.32;;;-0.40;75.40;;;;;;5116132;28;20024;-50
2022/12/19 01:03:51;;;;;;;6.78;6.07;;;-0.40;75.30;;;;;;5114409;28;20459;-49
2022/12/19 01:06:17;;;;;;;9.32;7.05;;;-0.50;75.00;;;;;;5110136;28;20016;-50
2022/12/19 01:08:43;;;;;;;8.18;6.45;;;-0.50;75.00;;;;;;5094179;28;20017;-49
2022/12/19 01:11:08;;;;;;;8.05;6.32;;;-0.60;75.20;;;;;;5101098;28;20488;-51
2022/12/19 01:13:36;;;;;;;10.57;7.10;;;-0.60;75.30;;;;;;5113543;28;20427;-50
2022/12/19 01:16:07;;;;;;;9.32;6.82;;;-0.60;75.50;;;;;;5100911;28;20055;-49
2022/12/19 01:18:33;;;;;;;8.83;7.30;;;-0.70;75.80;;;;;;5096462;28;20059;-52
2022/12/19 01:21:00;;;;;;;11.02;7.18;;;-0.70;75.80;;;;;;5114036;28;20279;-50
2022/12/19 01:23:26;;;;;;;8.93;6.88;;;-0.70;76.10;;;;;;5109157;28;20028;-50
2022/12/19 01:25:53;;;;;;;8.43;7.40;;;-0.70;76.10;;;;;;5114250;28;20024;-50
2022/12/19 01:28:19;;;;;;;9.23;6.80;;;-0.70;75.50;;;;;;5100269;28;20028;-50
2022/12/19 01:30:45;;;;;;;10.60;7.28;;;-0.70;75.30;;;;;;5094067;28;20054;-52
2022/12/19 01:33:11;;;;;;;10.57;7.20;;;-0.70;75.30;;;;;;5093565;28;20032;-49
2022/12/19 01:35:38;;;;;;;8.68;6.90;;;-0.80;75.00;;;;;;5093388;28;20409;-49
2022/12/19 01:38:04;;;;;;;9.65;7.57;;;-0.80;75.40;;;;;;5093875;28;20462;-50
2022/12/19 01:40:31;;;;;;;9.27;6.88;;;-0.80;75.70;;;;;;5106065;28;20081;-50
2022/12/19 01:42:57;;;;;;;7.63;6.53;;;-0.80;75.60;;;;;;5093500;28;20024;-50
2022/12/19 01:45:31;;;;;;;9.95;7.68;;;-0.90;75.60;;;;;;5110751;28;20026;-50
2022/12/19 01:48:14;;;;;;;9.18;6.60;;;-0.80;75.70;;;;;;5104692;28;20098;-49
2022/12/19 01:50:43;;;;;;;9.35;7.22;;;-0.90;75.60;;;;;;5113849;28;20035;-49
2022/12/19 01:53:10;;;;;;;8.40;6.95;;;-0.90;75.70;;;;;;5113279;28;20028;-48
2022/12/19 01:55:38;;;;;;;9.07;6.72;;;-0.90;76.10;;;;;;5113997;28;20027;-49
2022/12/19 01:58:04;;;;;;;7.95;6.40;;;-0.90;76.00;;;;;;5103428;28;20390;-50
2022/12/19 02:00:30;;;;;;;7.20;5.97;;;-0.90;76.10;;;;;;5093264;28;20032;-50
2022/12/19 02:03:10;;;;;;;8.43;7.18;;;-0.90;76.10;;;;;;5093233;28;20039;-50
2022/12/19 02:05:36;;;;;;;8.18;6.70;;;-0.90;76.30;;;;;;5111402;28;20051;-50
2022/12/19 02:08:03;;;;;;;9.68;6.40;;;-0.90;76.00;;;;;;5104452;28;20529;-50
2022/12/19 02:10:29;;;;;;;9.07;6.57;;;-0.80;75.90;;;;;;5102685;28;20053;-49
2022/12/19 02:12:55;;;;;;;8.35;6.65;;;-0.90;75.80;;;;;;5105520;28;20428;-50
2022/12/19 02:15:21;;;;;;;8.73;6.47;;;-0.90;75.70;;;;;;5107062;28;20031;-50
2022/12/19 02:18:07;;;;;;;9.45;6.72;;;-0.80;76.10;;;;;;5093391;28;20020;-50
2022/12/19 02:21:04;;;;;;;8.73;6.55;;;-0.80;76.20;;;;;;5093231;28;20067;-50
2022/12/19 02:24:07;;;;;;;9.68;6.90;;;-0.80;76.00;;;;;;5093505;28;20035;-51
2022/12/19 02:26:53;;;;;;;7.47;6.00;;;-0.90;75.90;;;;;;5101467;28;20016;-49
2022/12/19 02:29:31;;;;;;;9.32;6.35;;;-0.90;75.60;;;;;;5094326;28;20016;-50
2022/12/19 02:32:02;;;;;;;7.90;6.60;;;-0.90;75.90;;;;;;5113349;28;20024;-49
2022/12/19 02:34:35;;;;;;;8.15;6.13;;;-0.90;76.00;;;;;;5100558;28;20024;-52
2022/12/19 02:37:09;;;;;;;7.32;6.18;;;-0.90;76.00;;;;;;5113654;28;20081;-51
2022/12/19 02:39:44;;;;;;;6.82;5.70;;;-0.90;75.80;;;;;;5110080;28;20059;-54
2022/12/19 02:42:13;;;;;;;7.03;6.07;;;-0.90;75.90;;;;;;5097021;28;20051;-50
2022/12/19 02:44:42;;;;;;;8.48;6.20;;;-0.90;75.80;;;;;;5104915;28;20107;-53
2022/12/19 02:47:09;;;;;;;8.70;6.53;;;-0.90;76.00;;;;;;5097937;28;20031;-51
2022/12/19 02:49:36;;;;;;;8.45;6.85;;;-0.90;75.70;;;;;;5096590;28;20458;-51
2022/12/19 02:52:28;;;;;;;11.63;7.35;;;-0.90;75.20;;;;;;5097694;28;20028;-49
2022/12/19 02:54:56;;;;;;;;;;;-0.90;75.00;;;;;;5070437;28;20487;-51
2022/12/19 02:57:41;;;;;;;10.45;7.60;;;-0.90;74.70;;;;;;5100005;28;19926;-55
2022/12/19 03:00:08;;;;;;;10.10;7.75;;;-0.90;74.90;;;;;;5096512;28;20052;-51
2022/12/19 03:02:56;;;;;;;9.15;7.00;;;-0.90;74.70;;;;;;5096203;28;20488;-53
2022/12/19 03:05:31;;;;;;;10.73;7.50;;;-1.00;74.50;;;;;;5104375;28;20110;-49
2022/12/19 03:08:20;;;;;;;8.30;6.57;;;-1.00;74.60;;;;;;5104903;28;20100;-51
2022/12/19 03:10:57;;;;;;;10.70;7.53;;;-1.10;74.70;;;;;;5103783;28;20475;-50
2022/12/19 03:13:34;;;;;;;9.90;7.47;;;-1.10;75.20;;;;;;5104520;28;20035;-49
2022/12/19 03:16:01;;;;;;;9.82;7.63;;;-1.20;75.30;;;;;;5096758;28;20040;-48
2022/12/19 03:18:27;;;;;;;8.60;6.65;;;-1.20;75.50;;;;;;5096535;28;20035;-52
2022/12/19 03:21:11;;;;;;;10.23;7.65;;;-1.20;75.20;;;;;;5096155;28;20105;-50
2022/12/19 03:23:37;;;;;;;9.38;6.97;;;-1.30;74.70;;;;;;5100490;28;20031;-53
2022/12/19 03:26:10;;;;;;;11.35;7.82;;;-1.40;74.30;;;;;;5096252;28;20020;-51
2022/12/19 03:28:44;;;;;;;10.15;7.53;;;-1.50;73.90;;;;;;5096298;28;20024;-50
2022/12/19 03:31:13;;;;;;;11.15;7.45;;;-1.60;73.90;;;;;;5096486;28;20047;-51
2022/12/19 03:33:40;;;;;;;8.60;6.93;;;-1.60;73.90;;;;;;5096374;28;20020;-49
2022/12/19 03:36:11;;;;;;;9.27;7.40;;;-1.60;73.90;;;;;;5096302;28;20427;-52
2022/12/19 03:38:39;;;;;;;11.75;7.65;;;-1.70;73.90;;;;;;5103720;28;20373;-50
2022/12/19 03:41:09;;;;;;;8.85;7.15;;;-1.70;73.80;;;;;;5100485;28;20032;-51
2022/12/19 03:43:36;;;;;;;9.07;6.70;;;-1.70;73.70;;;;;;5115801;28;20069;-51
2022/12/19 03:46:24;;;;;;;9.38;7.30;;;-1.80;73.60;;;;;;5113948;28;20077;-51
2022/12/19 03:48:52;;;;;;;10.23;7.50;;;-1.80;73.40;;;;;;5095934;28;20051;-52
2022/12/19 03:51:31;;;;;;;9.35;6.47;;;-1.80;73.40;;;;;;5095228;28;20044;-49
2022/12/19 03:54:17;;;;;;;11.88;7.50;;;-1.80;73.30;;;;;;5108942;28;20031;-51
2022/12/19 03:57:14;;;;;;;8.77;6.93;;;-1.80;73.40;;;;;;5108942;28;20069;-49
2022/12/19 03:59:54;;;;;;;9.80;7.25;;;-1.90;73.30;;;;;;5082655;28;20433;-49
2022/12/19 04:39:22;;;;;;;10.10;7.57;;;-2.30;75.10;;;;;;5111851;28;20514;-66
2022/12/19 04:41:47;;;;;;;8.65;6.95;;;-2.30;75.00;;;;;;5109883;28;20123;-66
2022/12/19 04:44:13;;;;;;;8.52;6.57;;;-2.30;74.80;;;;;;5102488;28;20079;-66
2022/12/19 04:46:39;;;;;;;9.00;6.80;;;-2.30;74.70;;;;;;5095424;28;20028;-65
2022/12/19 04:49:04;;;;;;;6.75;5.75;;;-2.30;74.80;;;;;;5103460;28;20031;-66
2022/12/19 04:51:30;;;;;;;8.95;6.32;;;-2.30;74.70;;;;;;5103113;28;20035;-65
2022/12/19 04:53:56;;;;;;;8.30;6.70;;;-2.30;74.80;;;;;;5099550;28;20032;-65
2022/12/19 04:56:21;;;;;;;7.57;6.57;;;-2.30;75.00;;;;;;5095067;28;20023;-65
2022/12/19 04:58:47;;;;;;;7.70;6.38;;;-2.30;75.60;;;;;;5095155;28;20036;-65
2022/12/19 05:01:13;;;;;;;9.25;6.30;;;-2.30;75.00;;;;;;5095065;28;20036;-66
2022/12/19 05:03:39;;;;;;;7.15;5.47;;;-2.30;75.00;;;;;;5093695;28;20067;-66
2022/12/19 05:06:07;;;;;;;6.30;5.60;;;-2.30;75.20;;;;;;5094816;28;20024;-67
2022/12/19 05:08:34;;;;;;;9.38;6.50;;;-2.30;75.20;;;;;;5113043;28;20027;-65
2022/12/19 05:11:04;;;;;;;7.15;6.20;;;-2.30;75.30;;;;;;5106759;28;20473;-66
2022/12/19 05:13:30;;;;;;;6.93;5.38;;;-2.20;75.50;;;;;;5102496;28;20021;-66
2022/12/19 05:15:57;;;;;;;7.15;5.72;;;-2.20;75.40;;;;;;5094942;28;20028;-66
2022/12/19 05:18:24;;;;;;;7.53;5.80;;;-2.20;75.20;;;;;;5110189;28;20028;-66
2022/12/19 05:20:49;;;;;;;9.10;6.03;;;-2.20;75.10;;;;;;5108023;28;20473;-66
2022/12/19 05:23:15;;;;;;;7.68;6.03;;;-2.20;74.90;;;;;;5108843;28;20087;-66
2022/12/19 05:25:40;;;;;;;7.97;6.10;;;-2.20;75.20;;;;;;5115011;28;20028;-65
2022/12/19 05:28:06;;;;;;;7.88;5.68;;;-2.20;75.10;;;;;;5102333;28;20027;-65
2022/12/19 05:30:32;;;;;;;6.50;5.53;;;-2.20;74.80;;;;;;5100641;28;20416;-65
2022/12/19 05:32:57;;;;;;;6.00;4.82;;;-2.20;74.80;;;;;;5113834;28;20472;-67
2022/12/19 05:35:23;;;;;;;6.13;5.22;;;-2.30;74.80;;;;;;5108215;28;20074;-66
2022/12/19 05:37:48;;;;;;;7.55;5.85;;;-2.30;74.80;;;;;;5105020;28;20024;-66
2022/12/19 05:40:14;;;;;;;7.78;5.80;;;-2.40;74.60;;;;;;5098655;28;20030;-66
2022/12/19 05:42:40;;;;;;;6.25;4.97;;;-2.40;74.70;;;;;;5103026;28;20400;-64
2022/12/19 05:45:06;;;;;;;7.05;5.13;;;-2.50;74.80;;;;;;5094070;28;20032;-66
2022/12/19 05:47:31;;;;;;;5.43;4.75;;;-2.50;75.20;;;;;;5105189;28;20023;-65
2022/12/19 05:49:57;;;;;;;6.55;5.38;;;-2.50;75.40;;;;;;5108163;28;20165;-64
2022/12/19 05:52:23;;;;;;;8.23;6.10;;;-2.50;75.50;;;;;;5106927;28;20118;-64
2022/12/19 05:54:49;;;;;;;7.20;5.45;;;-2.50;75.80;;;;;;5094099;28;20020;-64
2022/12/19 05:57:15;;;;;;;6.55;5.18;;;-2.50;75.60;;;;;;5093939;28;20497;-66
2022/12/19 05:59:40;;;;;;;6.72;5.30;;;-2.50;75.50;;;;;;5094047;28;20060;-64
2022/12/19 06:02:06;;;;;;;6.38;5.25;;;-2.50;75.40;;;;;;5098174;28;20537;-63
2022/12/19 06:04:32;;;;;;;6.53;5.10;;;-2.60;75.40;;;;;;5097884;28;20038;-65
2022/12/19 06:06:57;;;;;;;7.28;5.45;;;-2.60;75.30;;;;;;5114025;28;20038;-65
2022/12/19 06:09:23;;;;;;;6.63;5.10;;;-2.60;75.50;;;;;;5098842;28;20064;-65
2022/12/19 06:11:49;;;;;;;8.02;5.40;;;-2.60;75.70;;;;;;5107834;28;20362;-65
2022/12/19 06:14:14;;;;;;;6.43;5.10;;;-2.60;75.70;;;;;;5101521;28;20046;-65
2022/12/19 06:16:40;;;;;;;6.03;5.03;;;-2.60;75.60;;;;;;5112403;28;20020;-65
2022/12/19 06:19:06;;;;;;;6.55;5.28;;;-2.60;75.50;;;;;;5099713;28;20072;-65
2022/12/19 06:21:31;;;;;;;6.72;5.40;;;-2.60;75.80;;;;;;5105452;28;20023;-65
2022/12/19 06:23:57;;;;;;;6.50;5.30;;;-2.60;76.30;;;;;;5101686;28;20031;-65
2022/12/19 06:26:23;;;;;;;6.38;5.22;;;-2.60;76.30;;;;;;5113985;28;20031;-65
2022/12/19 06:28:51;;;;;;;7.50;5.20;;;-2.60;76.60;;;;;;5113553;28;20416;-65
2022/12/19 06:31:18;;;;;;;6.97;5.15;;;-2.50;76.50;;;;;;5112019;28;20016;-65
2022/12/19 06:33:44;;;;;;;6.38;5.43;;;-2.50;76.60;;;;;;5093161;28;20076;-65
2022/12/19 06:36:14;;;;;;;5.45;4.85;;;-2.50;76.70;;;;;;5094091;28;20036;-64
2022/12/19 06:38:40;;;;;;;6.97;5.32;;;-2.50;76.50;;;;;;5114061;28;20023;-65
2022/12/19 06:43:50;;;;;;;6.75;4.80;;;-2.50;76.20;;;;;;5114090;28;20077;-65
2022/12/19 06:46:15;;;;;;;6.78;5.55;;;-2.50;76.50;;;;;;5113804;28;20509;-65
2022/12/19 06:48:41;;;;;;;6.90;5.03;;;-2.40;76.30;;;;;;5114487;28;20024;-65
2022/12/19 06:51:07;;;;;;;7.05;4.90;;;-2.40;76.30;;;;;;5113740;28;20397;-65
2022/12/19 06:53:33;;;;;;;6.07;4.72;;;-2.40;76.10;;;;;;5113538;28;20032;-61
2022/12/19 06:55:59;;;;;;;6.28;4.25;;;-2.30;76.10;;;;;;5096311;28;20039;-65
2022/12/19 06:58:24;;;;;;;6.43;4.60;;;-2.30;76.20;;;;;;5114375;28;20039;-65
2022/12/19 07:00:52;;;;;;;5.25;4.55;;;-2.20;76.10;;;;;;5113900;28;20462;-64
2022/12/19 07:03:23;;;;;;;5.88;4.28;;;-2.20;76.30;;;;;;5113747;28;20111;-65
2022/12/19 07:05:49;;;;;;;4.90;4.40;;;-2.10;76.30;;;;;;5113964;28;20401;-64
2022/12/19 07:08:15;;;;;;;6.28;4.55;;;-2.10;76.20;;;;;;5113828;28;20088;-65
2022/12/19 07:10:40;;;;;;;5.45;4.32;;;-2.00;76.20;;;;;;5113890;28;20385;-64
2022/12/19 07:13:06;;;;;;;4.30;3.85;;;-2.00;75.90;;;;;;5114521;28;20024;-64
2022/12/19 07:15:33;;;;;;;5.18;3.88;;;-2.00;76.00;;;;;;5113653;28;20408;-65
2022/12/19 07:18:02;;;;;;;4.95;4.20;;;-1.90;76.10;;;;;;5114008;28;20027;-64
2022/12/19 07:20:29;;;;;;;5.68;4.07;;;-1.80;76.20;;;;;;5106043;28;20488;-65
2022/12/19 07:22:55;;;;;;;4.32;3.88;;;-1.80;75.90;;;;;;5114154;28;20454;-66
2022/12/19 07:25:20;;;;;;;4.53;3.85;;;-1.70;75.90;;;;;;5094219;28;20027;-64
2022/12/19 07:27:46;;;;;;;4.68;3.75;;;-1.70;75.80;;;;;;5097168;28;20526;-64
2022/12/19 07:30:12;;;;;;;4.05;3.53;;;-1.60;75.60;;;;;;5100861;28;20093;-65
2022/12/19 07:32:38;;;;;;;4.05;3.55;;;-1.60;75.60;;;;;;5107245;28;20020;-65
2022/12/19 07:35:08;;;;;;;4.43;3.70;;;-1.50;75.90;;;;;;5095538;28;20032;-64
2022/12/19 07:37:34;;;;;;;3.70;3.33;;;-1.50;75.70;;;;;;5100290;28;20035;-64
2022/12/19 07:40:00;;;;;;;4.53;3.63;;;-1.40;75.50;;;;;;5100801;28;20072;-65
2022/12/19 07:42:26;;;;;;;5.28;3.90;;;-1.40;75.40;;;;;;5108238;28;20035;-65
2022/12/19 07:44:51;;;;;;;5.68;3.60;;;-1.40;75.10;;;;;;5108975;28;20062;-63
2022/12/19 07:47:17;;;;;;;4.68;3.58;;;-1.40;75.10;;;;;;5080039;28;20038;-66
2022/12/19 07:49:43;;;;;;;4.60;3.83;;;-1.40;75.70;;;;;;5113644;28;20032;-57
2022/12/19 07:52:08;;;;;;;4.97;3.75;;;-1.30;75.30;;;;;;5116028;28;20034;-66
2022/12/19 07:54:34;;;;;;;5.70;4.20;;;-1.30;75.40;;;;;;5099951;28;20066;-64
2022/12/19 07:57:00;;;;;;;4.68;3.85;;;-1.20;75.30;;;;;;5098433;28;20515;-66
2022/12/19 07:59:26;;;;;;;5.30;4.00;;;-1.20;75.30;;;;;;5103966;28;20035;-66
2022/12/19 08:01:51;;;;;;;5.47;4.10;;;-1.10;75.20;;;;;;5104349;28;20028;-63
2022/12/19 08:04:17;;;;;;;5.57;4.40;;;-1.10;75.70;;;;;;5106312;28;20078;-66
2022/12/19 08:06:44;;;;;;;5.18;4.45;;;-1.10;75.00;;;;;;5113330;28;20023;-63
2022/12/19 08:09:10;;;;;;;6.40;4.50;;;-1.00;75.20;;;;;;5108868;28;20031;-64
2022/12/19 08:11:36;;;;;;;6.18;5.30;;;-1.00;75.30;;;;;;5115568;28;20049;-64
2022/12/19 08:14:02;;;;;;;9.40;6.18;;;-1.00;75.20;;;;;;5099943;28;20028;-65
2022/12/19 08:16:28;;;;;;;8.48;6.00;;;-1.00;75.20;;;;;;5096066;28;20024;-65
2022/12/19 08:18:54;;;;;;;7.90;5.43;;;-0.90;75.20;;;;;;5115347;28;20427;-63
2022/12/19 08:21:20;;;;;;;7.45;5.63;;;-0.90;75.30;;;;;;5116414;28;20051;-63
2022/12/19 08:23:46;;;;;;;8.02;5.57;;;-0.80;75.30;;;;;;5115943;28;20073;-65
2022/12/19 08:26:14;;;;;;;7.75;5.72;;;-0.80;75.10;;;;;;5116888;28;20039;-68
2022/12/19 08:28:41;;;;;;;6.65;5.40;;;-0.80;75.20;;;;;;5116465;28;20042;-63
2022/12/19 08:31:12;;;;;;;8.18;6.00;;;-0.80;75.40;;;;;;5115884;28;20050;-51
2022/12/19 08:33:38;;;;;;;7.68;5.57;;;-0.70;75.50;;;;;;5108995;28;20031;-53
2022/12/19 08:36:08;;;;;;;6.88;5.53;;;-0.70;75.60;;;;;;5115583;28;20028;-52
2022/12/19 08:38:35;;;;;;;7.07;5.57;;;-0.60;75.50;;;;;;5115536;28;20019;-53
2022/12/19 08:41:01;;;;;;;7.47;5.55;;;-0.50;75.40;;;;;;5115325;28;20103;-50
2022/12/19 08:43:27;;;;;;;7.45;5.78;;;-0.40;75.30;;;;;;5115525;28;20422;-53
2022/12/19 08:45:52;;;;;;;6.65;5.90;;;-0.40;74.80;;;;;;5115527;28;20031;-47
2022/12/19 08:48:18;;;;;;;7.72;5.70;;;-0.30;74.70;;;;;;5115551;28;20024;-54
2022/12/19 08:50:55;;;;;;;7.53;5.68;;;-0.30;74.40;;;;;;5115076;28;20035;-49
2022/12/19 08:53:22;;;;;;;10.55;5.93;;;-0.20;74.40;;;;;;5114356;28;20114;-50
2022/12/19 08:55:56;;;;;;;7.78;5.63;;;-0.20;74.30;;;;;;5115324;28;20394;-52
2022/12/19 08:58:23;;;;;;;8.80;5.63;;;-0.20;74.00;;;;;;5115174;28;20027;-50
2022/12/19 09:00:49;;;;;;;7.28;5.03;;;-0.20;74.00;;;;;;5115191;28;20106;-46
2022/12/19 09:03:14;;;;;;;7.75;5.30;;;-0.20;73.80;;;;;;5115385;28;20482;-51
2022/12/19 09:05:40;;;;;;;6.45;5.18;;;-0.10;73.90;;;;;;5115162;28;20020;-48
2022/12/19 09:08:06;;;;;;;6.18;5.05;;;-0.10;73.90;;;;;;5099035;28;20024;-49
2022/12/19 09:10:35;;;;;;;6.25;4.50;;;-0.10;73.80;;;;;;5094624;28;20024;-51
2022/12/19 09:13:01;;;;;;;6.55;4.40;;;-0.10;73.90;;;;;;5094771;28;20024;-46
2022/12/19 09:15:26;;;;;;;5.28;4.35;;;-0.10;73.90;;;;;;5094494;28;20043;-51
2022/12/19 09:17:52;;;;;;;7.70;5.03;;;0.00;73.60;;;;;;5094344;28;20036;-50
2022/12/19 09:20:17;;;;;;;6.40;4.65;;;0.00;73.60;;;;;;5094790;28;20027;-52
2022/12/19 09:22:43;;;;;;;8.13;4.53;;;0.10;73.60;;;;;;5094269;28;20017;-49
2022/12/19 09:25:09;;;;;;;5.35;4.20;;;0.10;73.70;;;;;;5093944;28;20035;-51
2022/12/19 09:27:39;;;;;;;5.35;3.90;;;0.20;73.90;;;;;;5094406;28;20383;-48
2022/12/19 09:30:05;;;;;;;5.43;3.90;;;0.20;73.60;;;;;;5094107;28;20036;-50
2022/12/19 09:32:31;;;;;;;5.30;4.00;;;0.30;73.60;;;;;;5094192;28;20425;-52
2022/12/19 09:34:56;;;;;;;5.97;4.10;;;0.40;73.60;;;;;;5094337;28;20028;-53
2022/12/19 09:37:22;;;;;;;5.00;3.78;;;0.40;73.30;;;;;;5094228;28;20032;-49
2022/12/19 09:39:48;;;;;;;6.55;3.97;;;0.40;73.20;;;;;;5094133;28;20050;-50
2022/12/19 09:42:26;;;;;;;4.25;3.67;;;0.50;73.10;;;;;;5093790;28;20028;-51
2022/12/19 09:45:14;;;;;;;3.67;3.35;;;0.60;72.80;;;;;;5093683;28;20032;-50
2022/12/19 09:47:45;;;;;;;5.55;4.03;;;0.60;72.70;;;;;;5081164;28;20083;-51
2022/12/19 09:51:09;;;;;;;5.95;4.18;;;0.60;72.60;;;;;;5093331;28;20044;-51
2022/12/19 09:53:57;;;;;;;5.80;4.28;;;0.60;72.50;;;;;;5048816;28;20055;-53
2022/12/19 09:56:28;;;;;;;5.07;3.90;;;0.60;72.70;;;;;;5093922;28;20028;-49
2022/12/19 09:59:02;;;;;;;5.88;3.83;;;0.60;72.80;;;;;;5093921;28;20032;-54
2022/12/19 10:45:52;;;;;;;4.25;3.42;;;1.10;72.90;;;;;;5093628;28;20031;-52
2022/12/19 10:48:21;;;;;;;4.85;3.35;;;1.20;72.90;;;;;;5092935;28;20200;-48
2022/12/19 10:50:47;;;;;;;6.90;3.50;;;1.20;73.00;;;;;;5092869;28;20051;-61
2022/12/19 10:53:14;;;;;;;4.03;3.42;;;1.20;73.10;;;;;;5093257;28;20024;-62
2022/12/19 10:55:41;;;;;;;3.75;3.40;;;1.30;72.90;;;;;;5095296;28;20467;-54
2022/12/19 10:58:31;;;;;;;3.85;3.33;;;1.30;72.90;;;;;;5113071;28;20062;-55
2022/12/19 11:01:10;;;;;;;3.30;3.00;;;1.30;72.80;;;;;;5113548;28;20015;-56
2022/12/19 11:03:37;;;;;;;4.47;3.20;;;1.30;72.90;;;;;;5116889;28;20047;-56
2022/12/19 11:06:04;;;;;;;4.05;3.40;;;1.40;72.90;;;;;;5117147;28;20073;-57
2022/12/19 11:08:36;;;;;;;3.88;3.10;;;1.40;72.80;;;;;;5117396;28;20057;-53
2022/12/19 11:11:04;;;;;;;;;;;1.40;72.70;;;;;;5117828;28;20019;-56
2022/12/19 11:13:33;;;;;;;3.55;3.22;;;1.40;72.30;;;;;;5110824;28;19970;-56
2022/12/19 11:16:01;;;;;;;4.53;3.42;;;1.40;72.80;;;;;;5096707;28;20028;-56
2022/12/19 11:18:34;;;;;;;4.40;3.50;;;1.50;72.60;;;;;;5096619;28;20052;-57
2022/12/19 11:21:13;;;;;;;4.88;3.70;;;1.50;72.60;;;;;;5096755;28;20141;-56
2022/12/19 11:23:53;;;;;;;4.28;3.45;;;1.50;72.60;;;;;;5096752;28;20028;-56
2022/12/19 11:26:33;;;;;;;4.40;3.70;;;1.60;72.60;;;;;;5096775;28;20026;-55
2022/12/19 11:29:14;;;;;;;5.70;4.00;;;1.60;72.30;;;;;;5096658;28;20103;-57
2022/12/19 11:31:40;;;;;;;4.82;4.03;;;1.60;72.30;;;;;;5096660;28;20478;-52
2022/12/19 11:34:21;;;;;;;5.93;4.03;;;1.60;72.30;;;;;;5096584;28;20111;-54
2022/12/19 11:36:56;;;;;;;5.80;4.15;;;1.60;72.40;;;;;;5096602;28;20082;-52
2022/12/19 11:39:45;;;;;;;4.68;3.45;;;1.60;72.50;;;;;;5096504;28;20062;-55
2022/12/19 11:42:23;;;;;;;4.30;3.88;;;1.70;72.60;;;;;;5095720;28;20036;-56
2022/12/19 11:45:06;;;;;;;5.90;4.20;;;1.70;72.50;;;;;;5096270;28;20077;-56
2022/12/19 11:47:52;;;;;;;4.53;3.90;;;1.70;72.20;;;;;;5096882;28;20047;-56
2022/12/19 11:50:28;;;;;;;5.63;4.43;;;1.80;72.20;;;;;;5095997;28;20067;-56
2022/12/19 11:53:22;;;;;;;5.80;4.32;;;1.70;72.10;;;;;;5096150;28;20457;-56
2022/12/19 11:55:57;;;;;;;4.40;3.72;;;1.70;72.00;;;;;;5095914;28;20016;-53
2022/12/19 11:58:29;;;;;;;5.05;4.00;;;1.70;71.90;;;;;;5095598;28;20020;-53
2022/12/19 12:01:16;;;;;;;5.78;4.20;;;1.70;72.00;;;;;;5095936;28;20052;-50
2022/12/19 12:04:07;;;;;;;5.60;4.32;;;1.80;72.10;;;;;;5095526;28;20070;-51
2022/12/19 12:06:40;;;;;;;5.43;4.13;;;1.80;72.00;;;;;;5095792;28;20040;-51
2022/12/19 12:09:17;;;;;;;6.43;4.65;;;1.80;71.90;;;;;;5095673;28;20077;-50
2022/12/19 12:12:12;;;;;;;8.52;5.18;;;1.80;71.80;;;;;;5094930;28;20085;-50
2022/12/19 12:15:13;;;;;;;6.10;5.03;;;1.80;71.80;;;;;;5058105;28;20114;-53
2022/12/19 12:17:41;;;;;;;5.95;4.75;;;1.90;71.80;;;;;;5116062;28;20047;-48
2022/12/19 12:20:15;;;;;;;7.68;5.32;;;1.80;71.70;;;;;;5115721;28;20050;-53
2022/12/19 12:23:00;;;;;;;5.07;4.57;;;1.80;71.70;;;;;;5116567;28;20024;-54
2022/12/19 12:25:44;;;;;;;6.88;5.05;;;1.80;71.80;;;;;;5115489;28;20027;-52
2022/12/19 12:28:24;;;;;;;8.52;5.90;;;1.80;71.80;;;;;;5115891;28;20015;-56
2022/12/19 12:30:59;;;;;;;7.85;5.95;;;1.90;71.90;;;;;;5115845;28;20032;-53
2022/12/19 12:33:46;;;;;;;7.97;5.80;;;1.90;71.80;;;;;;5115796;28;20027;-52
2022/12/19 12:36:30;;;;;;;8.02;5.88;;;1.90;71.90;;;;;;5115435;28;20016;-51
2022/12/19 12:39:19;;;;;;;6.68;5.20;;;1.90;71.80;;;;;;5115276;28;20131;-50
2022/12/19 12:42:22;;;;;;;7.35;5.32;;;1.90;71.80;;;;;;5115631;28;20471;-51
2022/12/19 12:44:51;;;;;;;7.78;5.70;;;1.90;71.60;;;;;;5115510;28;20031;-52
2022/12/19 12:47:28;;;;;;;7.07;5.30;;;1.90;71.70;;;;;;5115502;28;20016;-53
2022/12/19 12:49:59;;;;;;;7.45;5.60;;;1.90;71.60;;;;;;5107970;28;20024;-52
2022/12/19 12:52:37;;;;;;;8.00;6.25;;;1.90;71.50;;;;;;5113948;28;20024;-55
2022/12/19 12:55:11;;;;;;;8.25;6.20;;;1.90;71.40;;;;;;5114941;28;20019;-52
2022/12/19 12:57:37;;;;;;;7.38;5.25;;;1.90;71.50;;;;;;5115547;28;20097;-52
2022/12/19 13:00:16;;;;;;;6.93;5.32;;;1.80;71.40;;;;;;5115081;28;20415;-49
2022/12/19 13:02:46;;;;;;;7.40;5.80;;;1.80;71.40;;;;;;5115220;28;20051;-48
2022/12/19 13:05:28;;;;;;;8.75;6.18;;;1.80;71.30;;;;;;5115013;28;20036;-50
2022/12/19 13:07:53;;;;;;;;;;;1.80;71.30;;;;;;5114825;28;20115;-53
2022/12/19 13:10:31;;;;;;;8.40;6.22;;;1.80;71.30;;;;;;5115099;28;19943;-49
2022/12/19 13:13:05;;;;;;;8.25;6.72;;;1.80;71.40;;;;;;5114954;28;20041;-50
2022/12/19 13:15:36;;;;;;;8.50;6.45;;;1.80;71.30;;;;;;5115478;28;20027;-53
2022/12/19 13:18:31;;;;;;;7.43;5.93;;;1.80;71.30;;;;;;5114466;28;20020;-53
2022/12/19 13:20:59;;;;;;;7.57;5.75;;;1.80;71.90;;;;;;5099817;28;20371;-51
2022/12/19 13:23:25;;;;;;;8.07;6.35;;;1.80;71.30;;;;;;5094893;28;20584;-54
2022/12/19 13:25:52;;;;;;;8.88;6.30;;;1.80;71.30;;;;;;5093880;28;20098;-48
2022/12/19 13:28:21;;;;;;;8.18;6.53;;;1.80;71.20;;;;;;5094410;28;20028;-49
2022/12/19 13:31:14;;;;;;;9.35;6.32;;;1.90;71.20;;;;;;5111573;28;20024;-58
2022/12/19 13:33:54;;;;;;;8.95;6.45;;;1.90;71.10;;;;;;5110747;28;20039;-58
2022/12/19 13:36:46;;;;;;;8.80;7.05;;;1.80;71.10;;;;;;5114679;28;20027;-49
2022/12/19 13:39:46;;;;;;;8.82;6.70;;;1.90;71.20;;;;;;5114596;28;20027;-53
2022/12/19 13:45:03;;;;;;;9.85;6.65;;;1.90;71.00;;;;;;5114386;28;20066;-53
2022/12/19 13:47:34;;;;;;;9.82;7.47;;;1.90;71.00;;;;;;5114128;28;20466;-51
2022/12/19 13:50:22;;;;;;;9.93;6.90;;;1.80;70.90;;;;;;5114416;28;20062;-51
2022/12/19 13:52:51;;;;;;;10.60;7.05;;;1.80;70.90;;;;;;5114366;28;20023;-48
2022/12/19 13:55:17;;;;;;;10.52;7.60;;;1.80;71.10;;;;;;5114256;28;20051;-52
2022/12/19 13:57:47;;;;;;;11.35;8.77;;;1.80;71.20;;;;;;5114240;28;20058;-52
2022/12/19 14:00:18;;;;;;;14.60;10.80;;;1.90;71.30;;;;;;5113641;28;20561;-52
2022/12/19 14:02:53;;;;;;;15.05;11.38;;;1.90;71.10;;;;;;5114134;28;20139;-53
2022/12/19 14:05:29;;;;;;;17.30;12.50;;;1.90;71.10;;;;;;5114103;28;20047;-56
2022/12/19 14:07:56;;;;;;;14.30;9.43;;;2.00;71.10;;;;;;5114011;28;20102;-52
2022/12/19 14:10:30;;;;;;;11.32;8.65;;;2.00;70.90;;;;;;5113748;28;20382;-53
2022/12/19 14:15:46;;;;;;;11.98;8.50;;;2.10;70.60;;;;;;5114694;28;20062;-55
2022/12/19 14:18:28;;;;;;;11.55;9.55;;;2.10;70.50;;;;;;5113839;28;20079;-53
2022/12/19 14:21:26;;;;;;;11.80;8.43;;;2.00;70.40;;;;;;5099072;28;20390;-51
2022/12/19 14:24:15;;;;;;;12.25;9.05;;;2.00;70.50;;;;;;5079300;28;20065;-54
2022/12/19 14:26:42;;;;;;;12.30;8.60;;;2.00;70.80;;;;;;5080928;28;20086;-53
2022/12/19 14:29:14;;;;;;;11.32;8.57;;;2.00;70.70;;;;;;5092676;28;20021;-55
2022/12/19 14:31:41;;;;;;;12.45;9.88;;;2.10;70.60;;;;;;5093777;28;20533;-55
2022/12/19 14:34:16;;;;;;;12.57;9.55;;;2.20;70.60;;;;;;5081853;28;20956;-58
2022/12/19 14:36:54;;;;;;;12.40;9.60;;;2.20;70.50;;;;;;5085962;28;20063;-57
2022/12/19 14:39:23;;;;;;;13.60;10.00;;;2.20;70.30;;;;;;5096288;28;20478;-54